createdAt,value
2018-09-06T00:00:44.322Z,51.70
2018-09-06T00:04:48.012Z,51.70
2018-09-06T00:08:51.689Z,51.70
2018-09-06T00:12:55.341Z,51.70
2018-09-06T00:16:58.964Z,51.70
2018-09-06T00:21:02.613Z,51.70
2018-09-06T00:25:06.401Z,51.70
2018-09-06T00:29:10.081Z,51.80
2018-09-06T00:33:13.737Z,51.80
2018-09-06T00:37:17.344Z,51.80
2018-09-06T00:41:21.060Z,51.80
2018-09-06T00:45:24.740Z,51.80
2018-09-06T00:49:28.472Z,51.90
2018-09-06T00:53:32.179Z,51.90
2018-09-06T00:57:35.958Z,52.00
2018-09-06T01:01:39.619Z,52.00
2018-09-06T01:05:43.327Z,52.00
2018-09-06T01:09:46.968Z,52.10
2018-09-06T01:13:50.679Z,52.00
2018-09-06T01:17:54.277Z,52.10
2018-09-06T01:21:57.988Z,52.70
2018-09-06T01:26:01.711Z,52.20
2018-09-06T01:30:05.640Z,52.20
2018-09-06T01:34:09.291Z,52.40
2018-09-06T01:38:12.998Z,52.30
2018-09-06T01:42:16.657Z,52.40
2018-09-06T01:46:20.299Z,52.40
2018-09-06T01:50:23.964Z,52.50
2018-09-06T01:54:27.676Z,52.60
2018-09-06T01:58:31.295Z,52.60
2018-09-06T02:02:34.954Z,52.50
2018-09-06T02:06:38.715Z,52.70
2018-09-06T02:10:42.408Z,52.50
2018-09-06T02:14:46.134Z,52.40
2018-09-06T02:18:49.913Z,52.60
2018-09-06T02:22:53.781Z,52.60
2018-09-06T02:26:57.437Z,52.60
2018-09-06T02:31:01.212Z,52.70
2018-09-06T02:35:04.903Z,52.70
2018-09-06T02:39:09.713Z,52.70
2018-09-06T02:43:14.040Z,52.80
2018-09-06T02:47:17.697Z,52.90
2018-09-06T02:51:21.875Z,53.40
2018-09-06T02:55:27.081Z,53.30
2018-09-06T02:59:30.757Z,53.20
2018-09-06T03:03:34.414Z,54.10
2018-09-06T03:07:38.110Z,53.50
2018-09-06T03:11:47.133Z,53.90
2018-09-06T03:15:50.854Z,53.60
2018-09-06T03:19:54.530Z,54.80
2018-09-06T03:23:58.240Z,54.10
2018-09-06T03:28:02.603Z,54.00
2018-09-06T03:32:06.384Z,53.90
2018-09-06T03:36:10.075Z,54.00
2018-09-06T03:40:13.725Z,55.20
2018-09-06T03:44:17.465Z,54.50
2018-09-06T03:48:21.136Z,54.40
2018-09-06T03:52:24.804Z,54.80
2018-09-06T03:56:28.459Z,55.30
2018-09-06T04:00:32.107Z,54.90
2018-09-06T04:04:35.813Z,54.60
2018-09-06T04:08:39.594Z,54.80
2018-09-06T04:12:43.253Z,54.60
2018-09-06T04:16:46.883Z,54.60
2018-09-06T04:20:50.561Z,55.20
2018-09-06T04:24:54.212Z,54.80
2018-09-06T04:28:57.952Z,55.20
2018-09-06T04:33:01.637Z,54.50
2018-09-06T04:37:05.299Z,54.60
2018-09-06T04:41:09.051Z,54.40
2018-09-06T04:45:12.721Z,54.30
2018-09-06T04:49:16.525Z,54.90
2018-09-06T04:53:20.168Z,54.40
2018-09-06T04:57:23.862Z,54.30
2018-09-06T05:01:27.575Z,54.30
2018-09-06T05:05:31.220Z,54.50
2018-09-06T05:09:34.876Z,54.40
2018-09-06T05:13:38.528Z,54.40
2018-09-06T05:17:42.163Z,55.00
2018-09-06T05:21:45.809Z,54.50
2018-09-06T05:25:49.467Z,54.80
2018-09-06T05:29:53.145Z,54.70
2018-09-06T05:33:56.828Z,55.40
2018-09-06T05:38:00.453Z,55.10
2018-09-06T05:42:04.176Z,54.80
2018-09-06T05:46:08.495Z,54.70
2018-09-06T05:51:15.081Z,54.70
2018-09-06T05:55:18.775Z,54.90
2018-09-06T05:59:22.457Z,54.80
2018-09-06T06:03:26.173Z,55.00
2018-09-06T06:07:40.809Z,55.00
2018-09-06T06:11:44.573Z,55.00
2018-09-06T06:15:48.283Z,55.40
2018-09-06T06:19:52.032Z,55.10
2018-09-06T06:23:56.560Z,55.30
2018-09-06T06:28:00.350Z,55.20
2018-09-06T06:32:04.143Z,55.50
2018-09-06T06:36:07.952Z,56.20
2018-09-06T06:40:11.721Z,57.10
2018-09-06T06:44:15.413Z,56.50
2018-09-06T06:48:19.109Z,58.30
2018-09-06T06:52:22.847Z,57.70
2018-09-06T06:56:26.533Z,58.60
2018-09-06T07:00:30.282Z,57.40
2018-09-06T07:04:34.178Z,56.50
2018-09-06T07:08:37.926Z,58.20
2018-09-06T07:12:41.620Z,57.50
2018-09-06T07:16:45.280Z,57.10
2018-09-06T07:20:48.969Z,57.50
2018-09-06T07:24:52.604Z,56.80
2018-09-06T07:28:56.318Z,57.00
2018-09-06T07:33:00.035Z,57.10
2018-09-06T07:37:03.734Z,58.20
2018-09-06T07:41:07.603Z,58.00
2018-09-06T07:45:11.263Z,58.90
2018-09-06T07:49:15.003Z,58.30
2018-09-06T07:53:18.685Z,56.00
2018-09-06T07:57:22.391Z,55.40
2018-09-06T08:01:26.123Z,55.30
2018-09-06T08:05:29.786Z,53.90
2018-09-06T08:09:33.512Z,53.10
2018-09-06T08:13:37.237Z,52.30
2018-09-06T08:17:40.948Z,50.20
2018-09-06T08:21:44.680Z,50.50
2018-09-06T08:25:48.396Z,50.60
2018-09-06T08:29:52.195Z,49.90
2018-09-06T08:33:55.934Z,48.90
2018-09-06T08:37:59.639Z,49.00
2018-09-06T08:42:03.353Z,48.90
2018-09-06T08:46:07.116Z,50.10
2018-09-06T08:50:10.808Z,50.30
2018-09-06T08:54:14.544Z,51.20
2018-09-06T08:58:18.285Z,50.60
2018-09-06T09:02:22.356Z,49.70
2018-09-06T09:06:26.144Z,51.90
2018-09-06T09:10:29.880Z,51.90
2018-09-06T09:14:33.611Z,51.30
2018-09-06T09:18:37.296Z,51.70
2018-09-06T09:22:40.989Z,51.70
2018-09-06T09:26:44.768Z,52.30
2018-09-06T09:30:48.516Z,51.60
2018-09-06T09:34:52.221Z,52.40
2018-09-06T09:38:56.038Z,51.70
2018-09-06T09:42:59.760Z,51.70
2018-09-06T09:51:06.439Z,51.80
2018-09-06T09:55:10.207Z,51.90
2018-09-06T09:59:13.990Z,52.60
2018-09-06T10:03:23.077Z,53.20
2018-09-06T10:07:32.207Z,51.90
2018-09-06T10:11:35.905Z,50.60
2018-09-06T10:15:40.243Z,51.90
2018-09-06T10:19:44.048Z,52.70
2018-09-06T10:23:47.897Z,52.50
2018-09-06T10:27:51.742Z,52.00
2018-09-06T10:31:55.437Z,51.30
2018-09-06T10:35:59.131Z,48.90
2018-09-06T10:40:03.107Z,48.50
2018-09-06T10:44:06.852Z,51.10
2018-09-06T10:48:10.556Z,50.50
2018-09-06T10:52:14.201Z,48.30
2018-09-06T10:56:17.976Z,49.70
2018-09-06T11:00:21.756Z,48.70
2018-09-06T11:04:25.580Z,50.20
2018-09-06T11:08:29.389Z,51.10
2018-09-06T11:12:33.058Z,49.70
2018-09-06T11:16:36.896Z,47.50
2018-09-06T11:20:40.594Z,49.50
2018-09-06T11:24:44.281Z,50.20
2018-09-06T11:28:48.090Z,50.80
2018-09-06T11:32:51.772Z,50.20
2018-09-06T11:36:55.566Z,50.50
2018-09-06T11:40:59.243Z,50.50
2018-09-06T11:45:03.122Z,50.00
2018-09-06T11:49:06.959Z,50.30
2018-09-06T11:53:10.753Z,51.30
2018-09-06T11:57:14.556Z,49.70
2018-09-06T12:01:18.325Z,50.30
2018-09-06T12:05:22.041Z,49.50
2018-09-06T12:09:25.814Z,50.40
2018-09-06T12:13:29.463Z,49.70
2018-09-06T12:17:33.168Z,49.90
2018-09-06T12:21:36.924Z,50.40
2018-09-06T12:25:40.709Z,49.60
2018-09-06T12:29:44.423Z,49.20
2018-09-06T12:33:48.178Z,49.50
2018-09-06T12:37:51.855Z,48.10
2018-09-06T12:41:55.628Z,47.40
2018-09-06T12:45:59.420Z,49.00
2018-09-06T12:50:03.317Z,48.80
2018-09-06T12:54:07.025Z,49.00
2018-09-06T12:58:10.750Z,48.70
2018-09-06T13:02:14.428Z,48.60
2018-09-06T13:06:18.205Z,48.70
2018-09-06T13:10:21.881Z,49.10
2018-09-06T13:14:25.587Z,49.70
2018-09-06T13:18:29.301Z,50.20
2018-09-06T13:22:32.975Z,50.80
2018-09-06T13:26:36.661Z,51.40
2018-09-06T13:30:40.364Z,52.10
2018-09-06T13:34:44.092Z,52.70
2018-09-06T13:38:47.867Z,52.10
2018-09-06T13:42:52.343Z,54.40
2018-09-06T13:46:56.064Z,53.70
2018-09-06T13:50:59.740Z,54.50
2018-09-06T13:55:03.400Z,55.10
2018-09-06T13:59:07.201Z,55.30
2018-09-06T14:03:10.887Z,55.20
2018-09-06T14:07:14.582Z,55.20
2018-09-06T14:11:18.283Z,55.60
2018-09-06T14:15:21.962Z,56.00
2018-09-06T14:19:25.671Z,56.50
2018-09-06T14:23:29.355Z,56.30
2018-09-06T14:27:33.092Z,56.20
2018-09-06T14:31:36.799Z,56.30
2018-09-06T14:35:40.457Z,56.20
2018-09-06T14:39:44.261Z,55.70
2018-09-06T14:43:48.012Z,55.90
2018-09-06T14:47:51.691Z,55.40
2018-09-06T14:51:55.391Z,55.60
2018-09-06T14:55:59.069Z,55.60
2018-09-06T15:00:02.841Z,56.10
2018-09-06T15:04:06.592Z,57.80
2018-09-06T15:08:10.400Z,56.30
2018-09-06T15:12:14.119Z,56.50
2018-09-06T15:16:17.938Z,56.40
2018-09-06T15:20:21.676Z,56.10
2018-09-06T15:24:25.359Z,56.00
2018-09-06T15:28:29.092Z,57.10
2018-09-06T15:32:32.788Z,56.70
2018-09-06T15:36:36.454Z,56.90
2018-09-06T15:40:40.148Z,56.50
2018-09-06T15:44:43.829Z,56.70
2018-09-06T15:48:47.616Z,56.40
2018-09-06T15:52:51.311Z,56.60
2018-09-06T15:56:54.954Z,56.70
2018-09-06T16:00:58.649Z,56.80
2018-09-06T16:05:02.379Z,56.60
2018-09-06T16:09:13.028Z,56.30
2018-09-06T16:13:16.725Z,57.30
2018-09-06T16:17:20.397Z,56.50
2018-09-06T16:21:24.173Z,56.40
2018-09-06T16:25:27.870Z,56.40
2018-09-06T16:29:31.647Z,56.80
2018-09-06T16:33:35.304Z,56.70
2018-09-06T16:37:45.771Z,56.60
2018-09-06T16:41:49.454Z,56.70
2018-09-06T16:45:53.116Z,57.00
2018-09-06T16:49:56.864Z,56.50
2018-09-06T16:54:00.582Z,56.90
2018-09-06T16:58:04.500Z,56.40
2018-09-06T17:02:08.449Z,56.10
2018-09-06T17:06:12.255Z,56.50
2018-09-06T17:10:16.057Z,56.00
2018-09-06T17:14:19.759Z,56.00
2018-09-06T17:18:23.465Z,55.90
2018-09-06T17:22:27.820Z,55.90
2018-09-06T17:26:31.552Z,55.90
2018-09-06T17:30:35.278Z,55.80
2018-09-06T17:34:39.276Z,55.80
2018-09-06T17:38:43.199Z,55.80
2018-09-06T17:42:47.006Z,55.80
2018-09-06T17:46:50.909Z,55.70
2018-09-06T17:50:54.780Z,55.80
2018-09-06T17:54:58.515Z,55.80
2018-09-06T17:59:02.300Z,55.90
2018-09-06T18:03:06.057Z,56.20
2018-09-06T18:07:09.856Z,56.00
2018-09-06T18:11:13.726Z,56.00
2018-09-06T18:15:17.774Z,56.00
2018-09-06T18:19:21.731Z,56.20
2018-09-06T18:23:25.927Z,55.90
2018-09-06T18:27:29.929Z,56.00
2018-09-06T18:31:33.811Z,56.00
2018-09-06T18:35:37.524Z,56.00
2018-09-06T18:39:41.214Z,55.90
2018-09-06T18:43:44.944Z,56.00
2018-09-06T18:47:48.691Z,56.00
2018-09-06T18:51:52.402Z,56.00
2018-09-06T18:55:56.149Z,55.90
2018-09-06T18:59:59.849Z,56.00
2018-09-06T19:04:03.507Z,55.90
2018-09-06T19:08:07.175Z,55.90
2018-09-06T19:12:10.868Z,55.90
2018-09-06T19:16:14.547Z,55.90
2018-09-06T19:20:18.322Z,56.00
2018-09-06T19:24:21.924Z,56.30
2018-09-06T19:28:25.713Z,56.00
2018-09-06T19:32:29.419Z,56.00
2018-09-06T19:36:33.159Z,56.00
2018-09-06T19:40:36.851Z,56.00
2018-09-06T19:44:40.491Z,56.00
2018-09-06T19:48:44.156Z,56.10
2018-09-06T19:52:47.819Z,56.00
2018-09-06T19:56:51.473Z,56.00
2018-09-06T20:00:55.128Z,56.00
2018-09-06T20:04:58.827Z,56.10
2018-09-06T20:09:02.517Z,56.10
2018-09-06T20:13:06.369Z,56.10
2018-09-06T20:17:10.056Z,56.10
2018-09-06T20:21:13.769Z,56.20
2018-09-06T20:25:17.447Z,56.20
2018-09-06T20:29:21.139Z,56.20
2018-09-06T20:33:24.820Z,56.30
2018-09-06T20:37:28.491Z,56.30
2018-09-06T20:41:32.161Z,56.30
2018-09-06T20:45:35.800Z,56.50
2018-09-06T20:49:39.527Z,56.50
2018-09-06T20:53:43.232Z,56.60
2018-09-06T20:57:46.859Z,56.60
2018-09-06T21:01:50.551Z,57.10
2018-09-06T21:05:54.289Z,56.80
2018-09-06T21:09:58.061Z,56.70
2018-09-06T21:14:01.799Z,56.80
2018-09-06T21:18:05.498Z,56.80
2018-09-06T21:22:09.188Z,57.00
2018-09-06T21:26:12.793Z,56.90
2018-09-06T21:30:16.500Z,56.90
2018-09-06T21:34:20.252Z,57.10
2018-09-06T21:38:24.020Z,57.00
2018-09-06T21:42:27.701Z,57.10
2018-09-06T21:46:31.523Z,57.00
2018-09-06T21:50:35.186Z,57.10
2018-09-06T21:54:38.842Z,57.10
2018-09-06T21:58:42.546Z,57.20
2018-09-06T22:02:51.563Z,57.20
2018-09-06T22:06:55.241Z,57.20
2018-09-06T22:10:58.912Z,57.30
2018-09-06T22:15:02.668Z,57.30
2018-09-06T22:19:06.621Z,57.30
2018-09-06T22:23:10.339Z,57.50
2018-09-06T22:27:14.095Z,57.60
2018-09-06T22:31:17.741Z,58.10
2018-09-06T22:35:21.401Z,57.70
2018-09-06T22:39:25.120Z,57.80
2018-09-06T22:43:28.780Z,57.90
2018-09-06T22:47:32.483Z,58.50
2018-09-06T22:51:36.095Z,58.00
2018-09-06T22:55:39.756Z,58.20
2018-09-06T22:59:43.475Z,58.20
2018-09-06T23:03:51.333Z,58.20
2018-09-06T23:07:55.036Z,58.20
2018-09-06T23:11:58.661Z,58.20
2018-09-06T23:16:02.328Z,58.20
2018-09-06T23:20:06.125Z,58.10
2018-09-06T23:24:09.795Z,58.10
2018-09-06T23:28:13.495Z,58.20
2018-09-06T23:32:23.456Z,58.30
2018-09-06T23:36:27.136Z,58.30
2018-09-06T23:40:35.012Z,58.20
2018-09-06T23:44:38.748Z,58.40
2018-09-06T23:48:42.432Z,58.20
2018-09-06T23:52:46.087Z,58.50
2018-09-06T23:56:49.759Z,58.40
